Time;durP1;ratioP1;P1;durP2;ratioP2;P2;SDS_P1;SDS_P2;PMS_P1;PMS_P2;Temp;Humidity;BMP_temperature;BMP_pressure;BME280_temperature;BME280_humidity;BME280_pressure;Samples;Min_cycle;Max_cycle;Signal;HPM_P1;HPM_P2
2021/09/18 00:00:02;;;;;;;25.60;14.82;;;;;;;;;;5072978;28;20361;-53
2021/09/18 00:02:28;;;;;;;20.50;13.50;;;;;;;;;;5072553;28;20474;-51
2021/09/18 00:04:54;;;;;;;22.67;14.05;;;;;;;;;;5072708;28;20502;-54
2021/09/18 00:07:20;;;;;;;22.48;14.18;;;;;;;;;;5072865;28;20384;-50
2021/09/18 00:09:46;;;;;;;14.57;9.13;;;;;;;;;;5072829;28;20074;-53
2021/09/18 00:12:13;;;;;;;11.52;7.38;;;;;;;;;;5073022;28;20054;-53
2021/09/18 00:14:39;;;;;;;13.85;8.23;;;;;;;;;;5072730;28;20107;-52
2021/09/18 00:17:06;;;;;;;9.00;7.57;;;;;;;;;;5072602;28;20024;-54
2021/09/18 00:19:32;;;;;;;11.15;7.57;;;;;;;;;;5072634;28;20017;-51
2021/09/18 00:21:58;;;;;;;12.55;6.47;;;;;;;;;;5072593;28;20085;-49
2021/09/18 00:24:24;;;;;;;8.18;6.78;;;;;;;;;;5072579;28;20040;-51
2021/09/18 00:26:50;;;;;;;10.63;6.65;;;;;;;;;;5076171;28;20103;-52
2021/09/18 00:29:16;;;;;;;8.40;6.38;;;;;;;;;;5077060;28;20032;-53
2021/09/18 00:31:43;;;;;;;9.85;6.20;;;;;;;;;;5076369;28;20100;-51
2021/09/18 00:34:09;;;;;;;7.07;6.25;;;;;;;;;;5076334;28;20024;-52
2021/09/18 00:36:35;;;;;;;8.70;6.25;;;;;;;;;;5076375;28;20158;-52
2021/09/18 00:39:01;;;;;;;7.72;6.55;;;;;;;;;;5076513;28;20028;-53
2021/09/18 00:41:27;;;;;;;8.43;6.45;;;;;;;;;;5076235;28;20592;-46
2021/09/18 00:43:55;;;;;;;8.90;6.60;;;;;;;;;;5076263;28;20063;-48
2021/09/18 00:46:21;;;;;;;6.60;5.97;;;;;;;;;;5076110;28;20021;-52
2021/09/18 00:48:47;;;;;;;6.70;6.00;;;;;;;;;;5076238;28;20036;-54
2021/09/18 00:51:14;;;;;;;9.48;6.57;;;;;;;;;;5076381;28;20021;-53
2021/09/18 00:53:40;;;;;;;6.80;6.07;;;;;;;;;;5076137;28;20082;-53
2021/09/18 00:56:06;;;;;;;7.35;6.57;;;;;;;;;;5076090;28;20048;-52
2021/09/18 00:58:34;;;;;;;6.63;5.93;;;;;;;;;;5076050;28;20376;-52
2021/09/18 01:01:01;;;;;;;8.00;6.35;;;;;;;;;;5076017;28;20046;-53
2021/09/18 01:03:29;;;;;;;8.75;6.45;;;;;;;;;;5075707;28;20066;-49
2021/09/18 01:05:58;;;;;;;9.88;5.80;;;;;;;;;;5076036;28;20021;-51
2021/09/18 01:08:25;;;;;;;6.97;6.28;;;;;;;;;;5075912;28;20051;-53
2021/09/18 01:10:52;;;;;;;8.77;6.10;;;;;;;;;;5075790;28;20116;-53
2021/09/18 01:13:20;;;;;;;12.68;6.80;;;;;;;;;;5075791;28;20104;-52
2021/09/18 01:15:50;;;;;;;7.50;5.85;;;;;;;;;;5075418;28;20031;-52
2021/09/18 01:18:16;;;;;;;9.88;6.15;;;;;;;;;;5075622;28;20480;-53
2021/09/18 01:20:43;;;;;;;6.70;5.90;;;;;;;;;;5075630;28;20066;-52
2021/09/18 01:23:10;;;;;;;8.07;6.07;;;;;;;;;;5075352;28;20036;-52
2021/09/18 01:25:37;;;;;;;7.88;6.25;;;;;;;;;;5075614;28;20472;-51
2021/09/18 01:28:04;;;;;;;8.77;6.53;;;;;;;;;;5075459;28;20036;-53
2021/09/18 01:30:31;;;;;;;6.72;6.03;;;;;;;;;;5075295;28;20028;-52
2021/09/18 01:32:58;;;;;;;9.90;7.70;;;;;;;;;;5075456;28;20020;-53
2021/09/18 01:35:24;;;;;;;10.02;6.78;;;;;;;;;;5075514;28;20033;-47
2021/09/18 01:37:51;;;;;;;8.05;6.97;;;;;;;;;;5074583;28;20070;-56
2021/09/18 01:40:24;;;;;;;8.60;7.03;;;;;;;;;;5075405;28;20029;-48
2021/09/18 01:42:50;;;;;;;7.82;6.65;;;;;;;;;;5075245;28;20128;-54
2021/09/18 01:45:17;;;;;;;12.45;7.72;;;;;;;;;;5075151;28;20099;-54
2021/09/18 01:47:46;;;;;;;9.27;6.35;;;;;;;;;;5075120;28;20028;-51
2021/09/18 01:50:26;;;;;;;9.07;6.43;;;;;;;;;;5075118;28;20103;-52
2021/09/18 01:52:56;;;;;;;10.32;7.72;;;;;;;;;;5075298;28;20103;-47
2021/09/18 01:55:22;;;;;;;8.48;6.68;;;;;;;;;;5073648;28;20020;-52
2021/09/18 01:57:49;;;;;;;8.95;7.07;;;;;;;;;;5074745;28;20033;-52
2021/09/18 02:00:16;;;;;;;9.43;7.60;;;;;;;;;;5074871;28;20468;-52
2021/09/18 02:02:43;;;;;;;9.98;6.88;;;;;;;;;;5074796;28;20083;-48
2021/09/18 02:05:10;;;;;;;11.98;7.47;;;;;;;;;;5074763;28;20036;-53
2021/09/18 02:07:36;;;;;;;11.43;7.60;;;;;;;;;;5074672;28;20031;-53
2021/09/18 02:10:03;;;;;;;11.43;7.13;;;;;;;;;;5074861;28;20095;-53
2021/09/18 02:12:30;;;;;;;10.65;7.63;;;;;;;;;;5074470;28;20031;-52
2021/09/18 02:14:56;;;;;;;11.73;8.15;;;;;;;;;;5074673;28;20032;-53
2021/09/18 02:17:22;;;;;;;11.02;7.85;;;;;;;;;;5073057;28;20392;-53
2021/09/18 02:19:48;;;;;;;12.45;7.13;;;;;;;;;;5074328;28;20083;-51
2021/09/18 02:22:14;;;;;;;11.88;7.88;;;;;;;;;;5074572;28;20060;-54
2021/09/18 02:24:40;;;;;;;11.90;7.53;;;;;;;;;;5074170;28;20495;-52
2021/09/18 02:27:06;;;;;;;10.25;7.43;;;;;;;;;;5074284;28;20468;-51
2021/09/18 02:29:32;;;;;;;7.88;7.07;;;;;;;;;;5074197;28;20025;-50
2021/09/18 02:31:58;;;;;;;10.07;8.02;;;;;;;;;;5074218;28;20020;-51
2021/09/18 02:34:24;;;;;;;8.00;7.20;;;;;;;;;;5074008;28;20067;-52
2021/09/18 02:36:53;;;;;;;10.93;6.65;;;;;;;;;;5074123;28;20028;-52
2021/09/18 02:39:19;;;;;;;13.05;6.75;;;;;;;;;;5073936;28;20032;-51
2021/09/18 02:41:45;;;;;;;12.77;7.40;;;;;;;;;;5074080;28;20024;-50
2021/09/18 02:44:13;;;;;;;12.02;7.50;;;;;;;;;;5073674;28;20120;-51
2021/09/18 02:46:39;;;;;;;9.18;7.47;;;;;;;;;;5073750;28;20509;-51
2021/09/18 02:49:05;;;;;;;11.27;7.05;;;;;;;;;;5073714;28;20032;-49
2021/09/18 02:51:32;;;;;;;8.55;6.93;;;;;;;;;;5073832;28;20073;-51
2021/09/18 02:53:59;;;;;;;14.70;7.15;;;;;;;;;;5073745;28;20023;-51
2021/09/18 02:56:28;;;;;;;9.90;6.70;;;;;;;;;;5073491;28;20539;-51
2021/09/18 02:58:54;;;;;;;7.63;6.60;;;;;;;;;;5073589;28;20038;-51
2021/09/18 03:01:20;;;;;;;10.13;6.70;;;;;;;;;;5073539;28;20025;-51
2021/09/18 03:03:46;;;;;;;11.63;7.35;;;;;;;;;;5073291;28;20040;-51
2021/09/18 03:06:12;;;;;;;8.27;7.03;;;;;;;;;;5073618;28;20445;-49
2021/09/18 03:08:38;;;;;;;9.57;7.10;;;;;;;;;;5073242;28;20464;-51
2021/09/18 03:11:05;;;;;;;8.32;6.30;;;;;;;;;;5073363;28;20035;-50
2021/09/18 03:13:31;;;;;;;9.15;6.78;;;;;;;;;;5073318;28;20029;-51
2021/09/18 03:15:57;;;;;;;9.25;7.45;;;;;;;;;;5073402;28;20020;-51
2021/09/18 03:18:23;;;;;;;12.98;6.75;;;;;;;;;;5073238;28;20036;-52
2021/09/18 03:20:52;;;;;;;10.88;7.63;;;;;;;;;;5073289;28;20384;-50
2021/09/18 03:23:18;;;;;;;12.23;7.22;;;;;;;;;;5072997;28;20052;-51
2021/09/18 03:25:44;;;;;;;8.73;6.60;;;;;;;;;;5073189;28;20020;-51
2021/09/18 03:28:10;;;;;;;11.73;7.10;;;;;;;;;;5073071;28;20028;-51
2021/09/18 03:30:36;;;;;;;8.77;7.30;;;;;;;;;;5073130;28;20025;-51
2021/09/18 03:33:02;;;;;;;12.15;7.78;;;;;;;;;;5073092;28;20034;-51
2021/09/18 03:35:28;;;;;;;11.27;7.07;;;;;;;;;;5073138;28;20029;-51
2021/09/18 03:37:59;;;;;;;9.77;7.05;;;;;;;;;;5073110;28;20028;-48
2021/09/18 03:40:25;;;;;;;17.70;11.17;;;;;;;;;;5073045;28;20029;-50
2021/09/18 03:42:51;;;;;;;19.67;12.70;;;;;;;;;;5072680;28;20280;-49
2021/09/18 03:45:17;;;;;;;13.75;9.80;;;;;;;;;;5072957;28;20112;-50
2021/09/18 03:47:43;;;;;;;12.68;8.45;;;;;;;;;;5072827;28;20016;-52
2021/09/18 03:50:10;;;;;;;13.40;8.18;;;;;;;;;;5073347;28;20476;-49
2021/09/18 03:52:37;;;;;;;10.85;8.30;;;;;;;;;;5072854;28;20468;-49
2021/09/18 03:55:04;;;;;;;9.25;7.68;;;;;;;;;;5072793;28;20029;-50
2021/09/18 03:57:30;;;;;;;10.65;7.78;;;;;;;;;;5072843;28;20025;-50
2021/09/18 03:59:56;;;;;;;12.13;7.63;;;;;;;;;;5073163;28;20035;-51
2021/09/18 04:02:22;;;;;;;11.73;7.00;;;;;;;;;;5076838;28;20103;-50
2021/09/18 04:04:48;;;;;;;8.32;7.07;;;;;;;;;;5076788;28;20021;-51
2021/09/18 04:07:14;;;;;;;10.02;7.40;;;;;;;;;;5076845;28;20035;-48
2021/09/18 04:09:40;;;;;;;10.18;7.53;;;;;;;;;;5076708;28;20033;-52
2021/09/18 04:12:07;;;;;;;11.38;7.03;;;;;;;;;;5076780;28;20021;-49
2021/09/18 04:14:35;;;;;;;13.88;7.13;;;;;;;;;;5076525;28;20024;-54
2021/09/18 04:17:01;;;;;;;19.20;6.97;;;;;;;;;;5076559;28;20145;-52
2021/09/18 04:19:27;;;;;;;13.43;6.90;;;;;;;;;;5076765;28;20023;-52
2021/09/18 04:21:53;;;;;;;8.90;7.05;;;;;;;;;;5076584;28;20029;-51
2021/09/18 04:24:19;;;;;;;9.30;6.43;;;;;;;;;;5076391;28;20068;-50
2021/09/18 04:26:45;;;;;;;8.93;6.18;;;;;;;;;;5076357;28;20062;-51
2021/09/18 04:29:11;;;;;;;11.15;6.45;;;;;;;;;;5076287;28;20028;-52
2021/09/18 04:31:37;;;;;;;9.27;6.55;;;;;;;;;;5076364;28;20025;-48
2021/09/18 04:34:04;;;;;;;8.95;6.50;;;;;;;;;;5076424;28;20403;-48
2021/09/18 04:36:30;;;;;;;10.10;6.07;;;;;;;;;;5076504;28;20029;-51
2021/09/18 04:38:56;;;;;;;7.70;6.78;;;;;;;;;;5076231;28;20029;-47
2021/09/18 04:41:22;;;;;;;8.73;6.85;;;;;;;;;;5076259;28;20047;-50
2021/09/18 04:43:51;;;;;;;9.95;6.50;;;;;;;;;;5076023;28;20480;-48
2021/09/18 04:46:17;;;;;;;10.82;7.10;;;;;;;;;;5076077;28;20028;-48
2021/09/18 04:48:43;;;;;;;9.90;6.55;;;;;;;;;;5076045;28;20029;-51
2021/09/18 04:51:09;;;;;;;8.38;5.88;;;;;;;;;;5076114;28;20050;-50
2021/09/18 04:53:35;;;;;;;8.23;6.22;;;;;;;;;;5076060;28;20028;-50
2021/09/18 04:56:01;;;;;;;12.40;6.05;;;;;;;;;;5075951;28;20176;-47
2021/09/18 04:58:27;;;;;;;8.45;6.13;;;;;;;;;;5075785;28;20491;-48
2021/09/18 05:00:53;;;;;;;15.38;6.30;;;;;;;;;;5075813;28;20024;-49
2021/09/18 05:03:19;;;;;;;7.78;6.25;;;;;;;;;;5075636;28;20529;-50
2021/09/18 05:05:48;;;;;;;8.88;5.45;;;;;;;;;;5075966;28;20037;-48
2021/09/18 05:08:14;;;;;;;9.20;7.60;;;;;;;;;;5075698;28;20017;-49
2021/09/18 05:10:40;;;;;;;24.10;16.02;;;;;;;;;;5075950;28;20025;-46
2021/09/18 05:13:06;;;;;;;13.75;9.45;;;;;;;;;;5074210;28;20027;-48
2021/09/18 05:15:33;;;;;;;11.98;7.20;;;;;;;;;;5075550;28;20526;-46
2021/09/18 05:17:59;;;;;;;27.10;19.48;;;;;;;;;;5075325;28;20024;-48
2021/09/18 05:20:25;;;;;;;15.98;10.82;;;;;;;;;;5075572;28;20361;-51
2021/09/18 05:22:51;;;;;;;11.60;8.15;;;;;;;;;;5075167;28;20046;-49
2021/09/18 05:25:17;;;;;;;14.60;7.95;;;;;;;;;;5075423;28;20028;-49
2021/09/18 05:27:43;;;;;;;6.40;5.70;;;;;;;;;;5075436;28;20044;-49
2021/09/18 05:30:10;;;;;;;9.40;5.88;;;;;;;;;;5075306;28;20016;-48
2021/09/18 05:32:37;;;;;;;10.43;6.00;;;;;;;;;;5075501;28;20066;-49
2021/09/18 05:35:03;;;;;;;8.95;6.50;;;;;;;;;;5075093;28;20144;-45
2021/09/18 05:37:29;;;;;;;9.07;5.57;;;;;;;;;;5075489;28;20035;-49
2021/09/18 05:39:55;;;;;;;8.05;5.30;;;;;;;;;;5075241;28;20109;-49
2021/09/18 05:42:24;;;;;;;7.50;5.05;;;;;;;;;;5075007;28;20047;-49
2021/09/18 05:44:50;;;;;;;5.65;5.10;;;;;;;;;;5075035;28;20065;-46
2021/09/18 05:47:18;;;;;;;12.13;5.65;;;;;;;;;;5074841;28;20024;-48
2021/09/18 05:49:44;;;;;;;6.28;5.00;;;;;;;;;;5075035;28;20040;-49
2021/09/18 05:52:11;;;;;;;9.32;5.28;;;;;;;;;;5074868;28;20460;-46
2021/09/18 05:54:37;;;;;;;6.18;5.30;;;;;;;;;;5075018;28;20048;-47
2021/09/18 05:57:03;;;;;;;6.47;4.97;;;;;;;;;;5074895;28;20025;-46
2021/09/18 05:59:29;;;;;;;8.73;5.68;;;;;;;;;;5074829;28;20023;-47
2021/09/18 06:01:55;;;;;;;6.65;4.97;;;;;;;;;;5074989;28;20020;-48
2021/09/18 06:04:21;;;;;;;7.38;5.22;;;;;;;;;;5074728;28;20036;-53
2021/09/18 06:06:47;;;;;;;10.98;7.00;;;;;;;;;;5075018;28;20148;-55
2021/09/18 06:09:13;;;;;;;7.15;5.32;;;;;;;;;;5074674;28;20104;-46
2021/09/18 06:11:40;;;;;;;11.98;6.50;;;;;;;;;;5074948;28;20100;-52
2021/09/18 06:14:06;;;;;;;12.73;6.13;;;;;;;;;;5074668;28;20029;-51
2021/09/18 06:16:32;;;;;;;11.05;7.43;;;;;;;;;;5074680;28;20040;-46
2021/09/18 06:18:58;;;;;;;7.78;5.45;;;;;;;;;;5074606;28;20031;-46
2021/09/18 06:21:24;;;;;;;8.50;5.10;;;;;;;;;;5074525;28;20021;-47
2021/09/18 06:23:50;;;;;;;8.07;4.97;;;;;;;;;;5073997;28;20044;-49
2021/09/18 06:26:16;;;;;;;6.32;5.28;;;;;;;;;;5074497;28;20032;-46
2021/09/18 06:28:43;;;;;;;5.63;5.00;;;;;;;;;;5074518;28;20422;-48
2021/09/18 06:31:09;;;;;;;5.78;5.13;;;;;;;;;;5074274;28;20025;-45
2021/09/18 06:33:38;;;;;;;5.72;5.05;;;;;;;;;;5074389;28;20032;-48
2021/09/18 06:36:04;;;;;;;6.07;4.65;;;;;;;;;;5074334;28;20035;-47
2021/09/18 06:38:30;;;;;;;14.45;5.22;;;;;;;;;;5074738;28;20099;-50
2021/09/18 06:40:58;;;;;;;6.25;4.70;;;;;;;;;;5074274;28;20033;-48
2021/09/18 06:43:24;;;;;;;4.90;4.40;;;;;;;;;;5074034;28;20493;-50
2021/09/18 06:45:51;;;;;;;4.85;4.35;;;;;;;;;;5074138;28;20025;-49
2021/09/18 06:48:17;;;;;;;6.40;4.18;;;;;;;;;;5074003;28;20476;-50
2021/09/18 06:50:44;;;;;;;6.50;4.07;;;;;;;;;;5074068;28;20070;-50
2021/09/18 06:53:11;;;;;;;4.38;3.40;;;;;;;;;;5073984;28;20468;-50
2021/09/18 06:55:37;;;;;;;7.60;3.90;;;;;;;;;;5074008;28;20055;-48
2021/09/18 06:58:03;;;;;;;14.45;8.65;;;;;;;;;;5073904;28;20048;-51
2021/09/18 07:00:30;;;;;;;8.02;7.22;;;;;;;;;;5072525;28;20392;-50
2021/09/18 07:02:56;;;;;;;9.52;6.68;;;;;;;;;;5073792;28;20425;-44
2021/09/18 07:05:22;;;;;;;9.43;6.07;;;;;;;;;;5073901;28;20396;-50
2021/09/18 07:07:48;;;;;;;10.73;5.78;;;;;;;;;;5074131;28;20024;-48
2021/09/18 07:10:15;;;;;;;10.77;6.38;;;;;;;;;;5073712;28;20028;-49
2021/09/18 07:12:42;;;;;;;10.75;7.78;;;;;;;;;;5071858;28;20023;-47
2021/09/18 07:15:08;;;;;;;17.42;12.13;;;;;;;;;;5053034;28;20032;-43
2021/09/18 07:17:34;;;;;;;13.18;7.03;;;;;;;;;;5053062;28;20017;-48
2021/09/18 07:20:01;;;;;;;7.78;5.60;;;;;;;;;;5052918;28;20057;-51
2021/09/18 07:22:28;;;;;;;8.65;3.97;;;;;;;;;;5052889;28;20020;-45
2021/09/18 07:24:54;;;;;;;7.55;4.78;;;;;;;;;;5052853;28;20041;-46
2021/09/18 07:27:20;;;;;;;8.63;4.78;;;;;;;;;;5053060;28;20028;-44
2021/09/18 07:29:47;;;;;;;10.45;5.10;;;;;;;;;;5052862;28;20465;-48
2021/09/18 07:32:13;;;;;;;10.75;4.50;;;;;;;;;;5052789;28;20036;-43
2021/09/18 07:34:39;;;;;;;8.57;4.50;;;;;;;;;;5052052;28;20028;-44
2021/09/18 07:37:06;;;;;;;7.75;4.30;;;;;;;;;;5052731;28;20044;-47
2021/09/18 07:39:32;;;;;;;6.50;3.92;;;;;;;;;;5052840;28;20130;-50
2021/09/18 07:41:58;;;;;;;5.00;4.22;;;;;;;;;;5052806;28;20021;-49
2021/09/18 07:44:24;;;;;;;7.70;3.83;;;;;;;;;;5052687;28;20108;-50
2021/09/18 07:46:50;;;;;;;7.90;4.68;;;;;;;;;;5052690;28;20074;-50
2021/09/18 07:49:17;;;;;;;6.20;3.67;;;;;;;;;;5052459;28;20477;-49
2021/09/18 07:51:44;;;;;;;7.95;4.22;;;;;;;;;;5052696;28;20050;-50
2021/09/18 07:54:10;;;;;;;10.82;4.88;;;;;;;;;;5052704;28;20029;-50
2021/09/18 07:56:37;;;;;;;5.93;3.67;;;;;;;;;;5052647;28;20017;-50
2021/09/18 07:59:03;;;;;;;9.35;3.63;;;;;;;;;;5052738;28;20028;-48
2021/09/18 08:01:33;;;;;;;8.27;3.90;;;;;;;;;;5052426;28;20013;-50
2021/09/18 08:04:01;;;;;;;7.15;3.80;;;;;;;;;;5049913;28;20056;-50
2021/09/18 08:06:28;;;;;;;8.68;3.80;;;;;;;;;;5052670;28;20017;-49
2021/09/18 08:08:55;;;;;;;5.93;3.05;;;;;;;;;;5052604;28;20024;-46
2021/09/18 08:11:22;;;;;;;7.05;3.35;;;;;;;;;;5052679;28;20021;-50
2021/09/18 08:13:48;;;;;;;8.38;2.97;;;;;;;;;;5052096;28;20047;-48
2021/09/18 08:16:15;;;;;;;7.93;3.08;;;;;;;;;;5052476;28;20521;-49
2021/09/18 08:18:41;;;;;;;5.57;3.03;;;;;;;;;;5052420;28;20492;-49
2021/09/18 08:21:07;;;;;;;2.40;2.13;;;;;;;;;;5052529;28;20114;-48
2021/09/18 08:23:33;;;;;;;6.68;2.78;;;;;;;;;;5052160;28;20041;-50
2021/09/18 08:26:00;;;;;;;10.13;3.22;;;;;;;;;;5052416;28;20511;-49
2021/09/18 08:28:26;;;;;;;5.13;2.17;;;;;;;;;;5052810;28;20032;-48
2021/09/18 08:30:52;;;;;;;4.60;2.47;;;;;;;;;;5052120;28;20499;-47
2021/09/18 08:33:20;;;;;;;3.03;2.28;;;;;;;;;;5052315;28;20083;-50
2021/09/18 08:35:46;;;;;;;13.32;2.80;;;;;;;;;;5052459;28;20051;-50
2021/09/18 08:38:12;;;;;;;3.47;2.25;;;;;;;;;;5052289;28;20025;-50
2021/09/18 08:40:39;;;;;;;4.50;2.25;;;;;;;;;;5052444;28;20090;-50
2021/09/18 08:43:06;;;;;;;13.35;2.72;;;;;;;;;;5052138;28;20399;-50
2021/09/18 08:45:32;;;;;;;10.48;5.88;;;;;;;;;;5051824;28;20033;-49
2021/09/18 08:48:02;;;;;;;11.93;7.03;;;;;;;;;;5055651;28;20059;-49
2021/09/18 08:50:28;;;;;;;24.60;17.03;;;;;;;;;;5053403;28;20025;-51
2021/09/18 08:52:55;;;;;;;32.08;21.95;;;;;;;;;;5055845;28;20253;-48
2021/09/18 08:55:22;;;;;;;8.25;5.45;;;;;;;;;;5055808;28;20037;-46
2021/09/18 08:57:48;;;;;;;7.53;3.83;;;;;;;;;;5053254;28;20068;-49
2021/09/18 09:00:32;;;;;;;17.10;10.15;;;;;;;;;;5054692;28;20044;-49
2021/09/18 09:02:59;;;;;;;19.40;8.40;;;;;;;;;;5054374;28;20411;-48
2021/09/18 09:05:30;;;;;;;4.78;3.10;;;;;;;;;;5055581;28;20421;-46
2021/09/18 09:08:05;;;;;;;10.38;4.82;;;;;;;;;;5055718;28;20093;-49
2021/09/18 09:10:32;;;;;;;30.55;13.80;;;;;;;;;;5053367;28;20025;-46
2021/09/18 09:13:08;;;;;;;11.82;5.65;;;;;;;;;;5055302;28;20056;-46
2021/09/18 09:15:34;;;;;;;39.50;29.77;;;;;;;;;;5053671;28;20532;-42
2021/09/18 09:18:21;;;;;;;22.33;6.15;;;;;;;;;;5055458;28;20369;-46
2021/09/18 09:21:07;;;;;;;60.97;37.60;;;;;;;;;;5055319;28;20100;-44
2021/09/18 09:23:33;;;;;;;34.90;20.08;;;;;;;;;;5052793;28;20037;-43
2021/09/18 09:25:59;;;;;;;24.05;18.27;;;;;;;;;;5055228;28;20045;-44
2021/09/18 09:28:29;;;;;;;269.42;179.82;;;;;;;;;;5055285;28;20562;-44
2021/09/18 09:31:01;;;;;;;54.22;32.20;;;;;;;;;;5054977;28;20028;-44
2021/09/18 09:33:28;;;;;;;24.98;15.75;;;;;;;;;;5054721;28;20408;-45
2021/09/18 09:35:54;;;;;;;20.88;12.05;;;;;;;;;;5055916;28;20025;-45
2021/09/18 09:38:23;;;;;;;9.07;3.67;;;;;;;;;;5053478;28;20024;-46
2021/09/18 09:40:49;;;;;;;54.92;30.52;;;;;;;;;;5054223;28;20055;-42
2021/09/18 09:43:16;;;;;;;19.27;10.45;;;;;;;;;;5053851;28;20086;-44
2021/09/18 09:45:43;;;;;;;31.73;18.30;;;;;;;;;;5054007;28;20031;-42
2021/09/18 09:48:09;;;;;;;13.32;3.67;;;;;;;;;;5054172;28;20028;-44
2021/09/18 09:50:36;;;;;;;5.80;2.15;;;;;;;;;;5053790;28;20021;-49
2021/09/18 09:53:02;;;;;;;21.52;4.80;;;;;;;;;;5053822;28;20025;-44
2021/09/18 09:55:29;;;;;;;24.52;3.75;;;;;;;;;;5051195;28;20068;-47
2021/09/18 09:57:59;;;;;;;6.57;1.85;;;;;;;;;;5053104;28;20025;-49
2021/09/18 10:00:35;;;;;;;8.18;1.60;;;;;;;;;;5053697;28;20025;-51
2021/09/18 10:03:01;;;;;;;2.13;1.50;;;;;;;;;;5053401;28;20028;-51
2021/09/18 10:05:27;;;;;;;3.15;1.35;;;;;;;;;;5053191;28;20065;-50
2021/09/18 10:07:54;;;;;;;2.22;1.20;;;;;;;;;;5053189;28;20014;-50
2021/09/18 10:10:21;;;;;;;1.10;1.00;;;;;;;;;;5053468;28;20152;-51
2021/09/18 10:12:47;;;;;;;3.00;1.20;;;;;;;;;;5053464;28;20031;-50
2021/09/18 10:15:13;;;;;;;4.40;2.67;;;;;;;;;;5052829;28;20439;-50
2021/09/18 10:17:47;;;;;;;2.05;1.40;;;;;;;;;;5053318;28;20031;-49
2021/09/18 10:25:33;;;;;;;6.15;1.52;;;;;;;;;;5052644;28;20036;-52
2021/09/18 10:28:11;;;;;;;6.28;1.70;;;;;;;;;;5050507;28;20109;-51
2021/09/18 10:30:37;;;;;;;8.65;1.77;;;;;;;;;;5050272;28;20028;-51
2021/09/18 10:33:04;;;;;;;7.55;1.38;;;;;;;;;;5053358;28;20024;-56
2021/09/18 10:35:31;;;;;;;7.68;1.77;;;;;;;;;;5053567;28;20021;-46
2021/09/18 10:37:57;;;;;;;5.13;2.42;;;;;;;;;;5052974;28;20084;-51
2021/09/18 10:40:23;;;;;;;4.30;2.03;;;;;;;;;;5052945;28;20021;-44
2021/09/18 10:42:50;;;;;;;3.30;1.40;;;;;;;;;;5052935;28;20385;-52
2021/09/18 10:45:17;;;;;;;7.97;1.20;;;;;;;;;;5052712;28;20032;-51
2021/09/18 10:47:45;;;;;;;1.73;1.27;;;;;;;;;;5053085;28;20020;-47
2021/09/18 10:50:26;;;;;;;2.28;1.55;;;;;;;;;;5052703;28;20027;-46
2021/09/18 10:53:07;;;;;;;1.65;1.27;;;;;;;;;;5051788;28;20419;-47
2021/09/18 10:56:06;;;;;;;2.92;1.42;;;;;;;;;;5051827;28;20020;-41
2021/09/18 10:58:33;;;;;;;1.58;1.10;;;;;;;;;;5030548;28;20044;-48
2021/09/18 11:01:00;;;;;;;5.85;1.77;;;;;;;;;;5031091;28;20113;-48
2021/09/18 11:03:40;;;;;;;34.25;25.08;;;;;;;;;;5031471;28;20095;-46
2021/09/18 11:06:07;;;;;;;10.18;6.22;;;;;;;;;;5030517;28;20048;-51
2021/09/18 11:08:35;;;;;;;31.95;21.55;;;;;;;;;;5030215;28;20025;-49
2021/09/18 11:11:05;;;;;;;26.75;16.35;;;;;;;;;;5030280;28;20100;-46
2021/09/18 11:13:32;;;;;;;10.33;6.47;;;;;;;;;;5030225;28;20032;-47
2021/09/18 11:16:04;;;;;;;28.63;18.83;;;;;;;;;;5030032;28;20025;-46
2021/09/18 11:18:30;;;;;;;5.13;2.50;;;;;;;;;;5029941;28;20021;-46
2021/09/18 11:21:07;;;;;;;10.27;2.33;;;;;;;;;;5013470;28;20030;-48
2021/09/18 11:23:37;;;;;;;5.32;1.80;;;;;;;;;;5027323;28;20441;-46
2021/09/18 11:26:22;;;;;;;1.00;0.93;;;;;;;;;;5030049;28;20052;-50
2021/09/18 11:28:48;;;;;;;3.80;1.15;;;;;;;;;;5026429;28;20045;-44
2021/09/18 11:31:14;;;;;;;1.95;0.80;;;;;;;;;;5029946;28;20486;-50
2021/09/18 11:33:41;;;;;;;3.33;0.80;;;;;;;;;;5036826;28;20115;-54
2021/09/18 11:36:07;;;;;;;4.47;1.40;;;;;;;;;;5052212;28;20551;-47
2021/09/18 11:38:34;;;;;;;3.53;1.40;;;;;;;;;;5052142;28;20025;-48
2021/09/18 11:41:11;;;;;;;8.93;4.75;;;;;;;;;;5053230;28;20021;-48
2021/09/18 11:43:38;;;;;;;10.48;7.22;;;;;;;;;;5053304;28;20037;-51
2021/09/18 11:46:04;;;;;;;13.75;8.40;;;;;;;;;;5053267;28;20024;-50
2021/09/18 11:48:31;;;;;;;13.98;5.85;;;;;;;;;;5053181;28;20051;-50
2021/09/18 11:50:58;;;;;;;4.13;2.33;;;;;;;;;;5053245;28;20137;-44
2021/09/18 11:53:25;;;;;;;4.00;1.95;;;;;;;;;;5053116;28;20077;-52
2021/09/18 11:55:51;;;;;;;8.25;2.70;;;;;;;;;;5030920;28;20854;-43
2021/09/18 11:58:21;;;;;;;8.98;2.78;;;;;;;;;;5023058;28;20022;-52
2021/09/18 12:00:50;;;;;;;5.10;2.92;;;;;;;;;;5021192;28;20153;-48
2021/09/18 12:03:22;;;;;;;6.25;3.70;;;;;;;;;;5021043;28;20029;-41
2021/09/18 12:05:49;;;;;;;6.55;2.13;;;;;;;;;;5022134;28;20369;-48
2021/09/18 12:08:20;;;;;;;4.07;1.25;;;;;;;;;;5021517;28;20331;-50
2021/09/18 12:10:46;;;;;;;2.15;1.23;;;;;;;;;;5021184;28;20048;-43
2021/09/18 12:13:16;;;;;;;18.98;8.13;;;;;;;;;;5020914;28;20034;-41
2021/09/18 12:15:43;;;;;;;27.98;14.88;;;;;;;;;;5021760;28;20018;-43
2021/09/18 12:18:22;;;;;;;22.58;15.38;;;;;;;;;;5022326;28;20112;-47
2021/09/18 12:20:48;;;;;;;12.05;7.05;;;;;;;;;;5022152;28;20609;-43
2021/09/18 12:23:15;;;;;;;6.20;3.92;;;;;;;;;;5025597;28;20056;-42
2021/09/18 12:25:41;;;;;;;4.22;2.60;;;;;;;;;;5024838;28;20086;-41
2021/09/18 12:28:07;;;;;;;4.82;3.22;;;;;;;;;;5024814;28;20040;-43
2021/09/18 12:30:41;;;;;;;4.88;2.92;;;;;;;;;;5024683;28;20030;-41
2021/09/18 12:33:12;;;;;;;9.32;2.88;;;;;;;;;;5024702;28;20556;-43
2021/09/18 12:35:38;;;;;;;;;;;;;;;;;;5025041;28;20029;-43
2021/09/18 12:38:04;;;;;;;51.17;28.77;;;;;;;;;;5024435;28;19963;-44
2021/09/18 12:40:35;;;;;;;39.35;21.30;;;;;;;;;;5024662;28;20451;-50
2021/09/18 12:43:12;;;;;;;77.82;57.45;;;;;;;;;;5024302;28;20540;-42
2021/09/18 12:45:39;;;;;;;44.05;29.52;;;;;;;;;;5024484;28;20025;-42
2021/09/18 12:48:20;;;;;;;105.00;79.00;;;;;;;;;;5024600;28;20033;-43
2021/09/18 12:51:05;;;;;;;25.73;13.75;;;;;;;;;;5024420;28;20084;-45
2021/09/18 12:53:33;;;;;;;36.13;21.48;;;;;;;;;;5024144;28;20025;-44
2021/09/18 12:56:05;;;;;;;82.78;47.35;;;;;;;;;;5024534;28;20025;-44
2021/09/18 12:58:31;;;;;;;27.92;18.85;;;;;;;;;;5025315;28;20023;-40
2021/09/18 13:01:01;;;;;;;3.00;2.70;;;;;;;;;;5024450;28;20025;-43
2021/09/18 13:03:27;;;;;;;6.63;1.93;;;;;;;;;;5023938;28;20181;-42
2021/09/18 13:06:13;;;;;;;3.95;1.90;;;;;;;;;;5053612;28;20031;-45
2021/09/18 13:08:48;;;;;;;3.50;2.22;;;;;;;;;;5075818;28;20020;-51
2021/09/18 13:11:18;;;;;;;36.15;18.55;;;;;;;;;;5076022;28;20021;-46
2021/09/18 13:13:45;;;;;;;10.63;6.15;;;;;;;;;;5076060;28;20079;-43
2021/09/18 13:16:12;;;;;;;40.90;31.55;;;;;;;;;;5075845;28;20038;-46
2021/09/18 13:18:38;;;;;;;631.30;350.67;;;;;;;;;;5075768;28;20020;-47
2021/09/18 13:21:04;;;;;;;154.57;116.68;;;;;;;;;;5065388;28;20048;-43
2021/09/18 13:23:30;;;;;;;5.70;3.00;;;;;;;;;;5020669;28;20053;-42
2021/09/18 13:25:56;;;;;;;8.35;4.03;;;;;;;;;;5020269;28;20036;-44
2021/09/18 13:28:25;;;;;;;4.63;2.30;;;;;;;;;;5021502;28;20918;-46
2021/09/18 13:30:51;;;;;;;1.70;1.60;;;;;;;;;;5020349;28;20025;-44
2021/09/18 13:33:17;;;;;;;2.83;1.75;;;;;;;;;;5019620;28;20032;-45
2021/09/18 13:35:44;;;;;;;12.75;2.28;;;;;;;;;;5020501;28;20450;-43
2021/09/18 13:38:10;;;;;;;46.47;5.32;;;;;;;;;;5020517;28;20043;-47
2021/09/18 13:40:36;;;;;;;32.85;3.45;;;;;;;;;;5020530;28;20607;-44
2021/09/18 13:43:02;;;;;;;6.75;1.98;;;;;;;;;;5020139;28;20037;-44
2021/09/18 13:45:28;;;;;;;279.15;194.40;;;;;;;;;;5019866;28;20112;-48
2021/09/18 13:47:54;;;;;;;101.53;52.17;;;;;;;;;;5019953;28;20731;-47
2021/09/18 13:50:21;;;;;;;21.35;5.60;;;;;;;;;;5020258;28;20512;-50
2021/09/18 13:52:47;;;;;;;351.90;254.52;;;;;;;;;;5020020;28;20029;-44
2021/09/18 13:55:14;;;;;;;34.60;21.02;;;;;;;;;;5020056;28;20118;-44
2021/09/18 13:57:41;;;;;;;8.80;3.03;;;;;;;;;;5019494;28;20010;-44
2021/09/18 14:00:08;;;;;;;3.67;2.10;;;;;;;;;;5019986;28;20047;-43
2021/09/18 14:02:34;;;;;;;10.82;3.20;;;;;;;;;;5019844;28;20490;-48
2021/09/18 14:05:00;;;;;;;10.82;3.13;;;;;;;;;;5019537;28;20048;-44
2021/09/18 14:07:26;;;;;;;12.70;2.60;;;;;;;;;;5019881;28;20509;-50
2021/09/18 14:09:55;;;;;;;5.82;2.25;;;;;;;;;;5019381;28;20124;-47
2021/09/18 14:12:21;;;;;;;7.03;2.88;;;;;;;;;;5052985;28;20028;-53
2021/09/18 14:14:47;;;;;;;11.63;2.70;;;;;;;;;;5074790;28;20028;-52
2021/09/18 14:17:16;;;;;;;26.20;4.45;;;;;;;;;;5073618;28;20020;-51
2021/09/18 14:19:42;;;;;;;60.60;13.48;;;;;;;;;;5074529;28;20028;-52
2021/09/18 14:22:08;;;;;;;40.30;12.30;;;;;;;;;;5074807;28;20016;-52
2021/09/18 14:24:34;;;;;;;68.43;34.70;;;;;;;;;;5074312;28;20127;-52
2021/09/18 14:27:00;;;;;;;52.75;23.35;;;;;;;;;;5074453;28;20032;-51
2021/09/18 14:29:26;;;;;;;24.58;10.32;;;;;;;;;;5074446;28;20039;-47
2021/09/18 14:31:52;;;;;;;10.02;5.13;;;;;;;;;;5074294;28;20108;-53
2021/09/18 14:34:21;;;;;;;21.60;6.30;;;;;;;;;;5074014;28;20047;-52
2021/09/18 14:36:47;;;;;;;18.38;4.20;;;;;;;;;;5073968;28;20400;-49
2021/09/18 14:39:13;;;;;;;8.65;2.88;;;;;;;;;;5074207;28;20074;-53
2021/09/18 14:41:40;;;;;;;67.65;6.63;;;;;;;;;;5074211;28;20021;-51